Time,TemperatureF,DewpointF,PressureIn,WindDirection,WindDirectionDegrees,WindSpeedMPH,WindSpeedGustMPH,Humidity,HourlyPrecipIn,Conditions,Clouds,dailyrainin,SoftwareType,DateUTC
2013-06-07 00:00:00,56.4,52.3,30.15,SSE,148,0.0,1.0,86,0.00,,,0.01,Wunderground v.1.15,2013-06-07 04:00:00,
2013-06-07 00:05:00,56.4,52.6,30.14,SSE,148,1.0,1.0,87,0.00,,,0.00,Wunderground v.1.15,2013-06-07 04:05:00,
2013-06-07 00:10:00,56.4,52.6,30.14,SSE,148,0.0,1.0,87,0.00,,,0.00,Wunderground v.1.15,2013-06-07 04:10:00,
2013-06-07 00:15:00,56.3,52.5,30.14,SSE,148,0.0,0.0,87,0.00,,,0.00,Wunderground v.1.15,2013-06-07 04:15:00,
2013-06-07 00:20:00,56.3,52.8,30.14,SSE,148,0.0,0.0,88,0.00,,,0.00,Wunderground v.1.15,2013-06-07 04:20:00,
2013-06-07 00:25:00,56.2,52.7,30.13,SSE,148,0.0,0.0,88,0.00,,,0.00,Wunderground v.1.15,2013-06-07 04:25:00,
2013-06-07 00:31:00,56.2,52.7,30.13,SSE,148,0.0,0.0,88,0.00,,,0.00,Wunderground v.1.15,2013-06-07 04:31:00,
2013-06-07 00:37:00,56.1,52.6,30.13,SSE,148,0.0,0.0,88,0.00,,,0.01,Wunderground v.1.15,2013-06-07 04:37:00,
2013-06-07 00:43:00,56.0,52.5,30.13,SSE,148,0.0,0.0,88,0.00,,,0.01,Wunderground v.1.15,2013-06-07 04:43:00,
2013-06-07 00:48:00,55.9,52.7,30.13,SSE,148,0.0,0.0,89,0.00,,,0.01,Wunderground v.1.15,2013-06-07 04:48:00,
2013-06-07 00:54:00,55.8,52.6,30.13,SSE,148,0.0,1.0,89,0.00,,,0.01,Wunderground v.1.15,2013-06-07 04:54:00,
2013-06-07 01:00:00,55.7,52.5,30.13,SSE,148,0.0,1.0,89,0.00,,,0.01,Wunderground v.1.15,2013-06-07 05:00:00,
2013-06-07 01:06:00,55.7,52.5,30.12,SSE,148,0.0,0.0,89,0.00,,,0.02,Wunderground v.1.15,2013-06-07 05:06:00,
2013-06-07 01:12:00,55.7,52.5,30.12,SSE,148,0.0,0.0,89,0.00,,,0.02,Wunderground v.1.15,2013-06-07 05:12:00,
2013-06-07 01:18:00,55.6,52.4,30.12,SSE,148,0.0,0.0,89,0.00,,,0.02,Wunderground v.1.15,2013-06-07 05:18:00,
2013-06-07 01:23:00,55.6,52.4,30.12,SSE,148,0.0,0.0,89,0.04,,,0.03,Wunderground v.1.15,2013-06-07 05:23:00,
2013-06-07 01:29:00,55.4,52.2,30.12,SSE,148,0.0,1.0,89,0.04,,,0.03,Wunderground v.1.15,2013-06-07 05:29:00,
2013-06-07 01:35:00,55.4,52.2,30.12,SSE,148,0.0,1.0,89,0.04,,,0.03,Wunderground v.1.15,2013-06-07 05:35:00,
2013-06-07 01:40:00,55.3,52.1,30.12,SSE,148,0.0,1.0,89,0.00,,,0.03,Wunderground v.1.15,2013-06-07 05:40:00,
2013-06-07 01:47:00,55.2,52.0,30.12,SSE,148,1.0,1.0,89,0.00,,,0.03,Wunderground v.1.15,2013-06-07 05:47:00,
2013-06-07 01:52:00,55.2,52.0,30.11,SSE,148,1.0,1.0,89,0.00,,,0.03,Wunderground v.1.15,2013-06-07 05:52:00,
2013-06-07 01:58:00,55.1,51.9,30.11,ESE,105,0.0,3.0,89,0.00,,,0.03,Wunderground v.1.15,2013-06-07 05:58:00,
2013-06-07 02:04:00,55.1,51.9,30.11,ENE,61,3.0,3.0,89,0.00,,,0.03,Wunderground v.1.15,2013-06-07 06:04:00,
2013-06-07 02:10:00,55.1,51.9,30.10,East,94,2.0,3.0,89,0.00,,,0.03,Wunderground v.1.15,2013-06-07 06:10:00,
2013-06-07 02:15:00,55.0,51.8,30.10,ENE,78,2.0,3.0,89,0.00,,,0.03,Wunderground v.1.15,2013-06-07 06:15:00,
2013-06-07 02:21:00,58.4,54.5,30.09,East,92,1.0,3.0,87,0.00,,,0.04,Wunderground v.1.15,2013-06-07 06:21:00,
2013-06-07 02:26:00,58.9,55.0,30.08,ENE,65,0.0,3.0,87,0.00,,,0.04,Wunderground v.1.15,2013-06-07 06:26:00,
2013-06-07 02:31:00,57.0,53.5,30.08,East,101,0.0,3.0,88,0.00,,,0.04,Wunderground v.1.15,2013-06-07 06:31:00,
2013-06-07 02:36:00,55.6,52.1,30.09,East,101,3.0,5.0,88,0.00,,,0.04,Wunderground v.1.15,2013-06-07 06:36:00,
2013-06-07 02:41:00,55.2,52.0,30.09,East,101,0.0,5.0,89,0.00,,,0.04,Wunderground v.1.15,2013-06-07 06:41:00,
2013-06-07 02:46:00,55.1,51.9,30.08,ESE,109,2.0,4.0,89,0.00,,,0.04,Wunderground v.1.15,2013-06-07 06:46:00,
2013-06-07 02:51:00,55.0,51.8,30.08,SE,135,1.0,4.0,89,0.00,,,0.04,Wunderground v.1.15,2013-06-07 06:51:00,
2013-06-07 02:56:00,54.9,51.7,30.08,East,86,2.0,3.0,89,0.00,,,0.04,Wunderground v.1.15,2013-06-07 06:56:00,
2013-06-07 03:01:00,54.8,51.6,30.07,ESE,106,1.0,5.0,89,0.00,,,0.04,Wunderground v.1.15,2013-06-07 07:01:00,
2013-06-07 03:06:00,54.7,51.5,30.07,SE,132,0.0,6.0,89,0.00,,,0.04,Wunderground v.1.15,2013-06-07 07:06:00,
2013-06-07 03:11:00,54.6,51.4,30.07,SSW,210,0.0,6.0,89,0.00,,,0.04,Wunderground v.1.15,2013-06-07 07:11:00,
2013-06-07 03:16:00,54.6,51.4,30.07,SSE,161,1.0,2.0,89,0.00,,,0.04,Wunderground v.1.15,2013-06-07 07:16:00,
2013-06-07 03:22:00,54.5,51.3,30.08,SE,137,1.0,5.0,89,0.00,,,0.04,Wunderground v.1.15,2013-06-07 07:22:00,
2013-06-07 03:27:00,54.4,51.2,30.08,SSE,148,1.0,3.0,89,0.00,,,0.04,Wunderground v.1.15,2013-06-07 07:27:00,
2013-06-07 03:32:00,54.4,51.2,30.08,SSE,148,0.0,3.0,89,0.00,,,0.04,Wunderground v.1.15,2013-06-07 07:32:00,
2013-06-07 03:37:00,54.3,51.1,30.08,SSE,162,1.0,4.0,89,0.00,,,0.04,Wunderground v.1.15,2013-06-07 07:37:00,
2013-06-07 03:42:00,54.2,51.0,30.08,SE,128,0.0,5.0,89,0.00,,,0.04,Wunderground v.1.15,2013-06-07 07:42:00,
2013-06-07 03:47:00,54.2,51.0,30.08,SSE,155,0.0,4.0,89,0.00,,,0.04,Wunderground v.1.15,2013-06-07 07:47:00,
2013-06-07 03:52:00,54.1,50.9,30.08,SSE,155,0.0,1.0,89,0.00,,,0.04,Wunderground v.1.15,2013-06-07 07:52:00,
2013-06-07 03:57:00,54.1,50.9,30.08,SSE,155,1.0,1.0,89,0.00,,,0.04,Wunderground v.1.15,2013-06-07 07:57:00,
2013-06-07 04:02:00,54.1,50.9,30.09,SSE,155,0.0,0.0,89,0.00,,,0.04,Wunderground v.1.15,2013-06-07 08:02:00,
2013-06-07 04:07:00,54.1,50.9,30.09,SSE,155,0.0,0.0,89,0.00,,,0.04,Wunderground v.1.15,2013-06-07 08:07:00,
2013-06-07 04:12:00,54.1,50.9,30.08,SSE,155,1.0,1.0,89,0.00,,,0.04,Wunderground v.1.15,2013-06-07 08:12:00,
2013-06-07 04:17:00,54.1,50.9,30.08,SSE,155,0.0,1.0,89,0.00,,,0.04,Wunderground v.1.15,2013-06-07 08:17:00,
2013-06-07 04:22:00,54.2,51.0,30.08,SSE,155,0.0,0.0,89,0.00,,,0.04,Wunderground v.1.15,2013-06-07 08:22:00,
2013-06-07 04:27:00,54.2,51.0,30.08,SSE,155,0.0,1.0,89,0.00,,,0.04,Wunderground v.1.15,2013-06-07 08:27:00,
2013-06-07 04:32:00,54.2,51.0,30.08,SSE,155,0.0,0.0,89,0.00,,,0.05,Wunderground v.1.15,2013-06-07 08:32:00,
2013-06-07 04:37:00,54.2,51.0,30.08,SSE,155,0.0,0.0,89,0.00,,,0.05,Wunderground v.1.15,2013-06-07 08:37:00,
2013-06-07 04:42:00,54.2,51.0,30.08,SSE,155,0.0,0.0,89,0.00,,,0.05,Wunderground v.1.15,2013-06-07 08:42:00,
2013-06-07 04:47:00,54.1,50.9,30.07,ESE,107,0.0,2.0,89,0.00,,,0.05,Wunderground v.1.15,2013-06-07 08:47:00,
2013-06-07 04:52:00,54.1,50.9,30.08,ESE,107,0.0,0.0,89,0.00,,,0.05,Wunderground v.1.15,2013-06-07 08:52:00,
2013-06-07 04:57:00,54.1,50.9,30.08,ESE,107,0.0,1.0,89,0.00,,,0.05,Wunderground v.1.15,2013-06-07 08:57:00,
2013-06-07 05:02:00,54.1,50.9,30.08,ESE,107,0.0,0.0,89,0.00,,,0.05,Wunderground v.1.15,2013-06-07 09:02:00,
2013-06-07 05:07:00,54.1,50.9,30.08,ESE,107,0.0,0.0,89,0.00,,,0.05,Wunderground v.1.15,2013-06-07 09:07:00,
2013-06-07 05:12:00,54.1,50.9,30.08,ESE,107,0.0,0.0,89,0.00,,,0.05,Wunderground v.1.15,2013-06-07 09:12:00,
2013-06-07 05:17:00,54.1,50.9,30.08,ESE,107,0.0,0.0,89,0.00,,,0.05,Wunderground v.1.15,2013-06-07 09:17:00,
2013-06-07 05:22:00,54.1,50.9,30.08,ESE,107,0.0,0.0,89,0.00,,,0.05,Wunderground v.1.15,2013-06-07 09:22:00,
2013-06-07 05:27:00,54.1,50.9,30.08,ESE,107,0.0,0.0,89,0.00,,,0.06,Wunderground v.1.15,2013-06-07 09:27:00,
2013-06-07 05:32:00,54.0,50.8,30.08,ESE,107,0.0,0.0,89,0.00,,,0.06,Wunderground v.1.15,2013-06-07 09:32:00,
2013-06-07 05:37:00,54.0,50.8,30.08,ESE,107,0.0,1.0,89,0.00,,,0.06,Wunderground v.1.15,2013-06-07 09:37:00,
2013-06-07 05:42:00,53.9,50.7,30.08,ESE,107,0.0,0.0,89,0.04,,,0.07,Wunderground v.1.15,2013-06-07 09:42:00,
2013-06-07 05:47:00,53.9,50.7,30.08,ESE,107,0.0,1.0,89,0.04,,,0.07,Wunderground v.1.15,2013-06-07 09:47:00,
2013-06-07 05:52:00,54.0,50.8,30.08,ESE,107,0.0,1.0,89,0.04,,,0.07,Wunderground v.1.15,2013-06-07 09:52:00,
2013-06-07 05:57:00,54.0,50.8,30.08,ESE,107,0.0,1.0,89,0.05,,,0.08,Wunderground v.1.15,2013-06-07 09:57:00,
2013-06-07 06:02:00,53.9,50.7,30.08,ESE,107,0.0,0.0,89,0.05,,,0.08,Wunderground v.1.15,2013-06-07 10:02:00,
2013-06-07 06:07:00,53.9,50.7,30.08,ESE,107,0.0,3.0,89,0.05,,,0.09,Wunderground v.1.15,2013-06-07 10:07:00,
2013-06-07 06:12:00,53.8,50.6,30.08,ESE,107,0.0,0.0,89,0.05,,,0.09,Wunderground v.1.15,2013-06-07 10:12:00,
2013-06-07 06:17:00,53.8,50.6,30.08,ESE,107,0.0,2.0,89,0.06,,,0.10,Wunderground v.1.15,2013-06-07 10:17:00,
2013-06-07 06:22:00,53.8,50.6,30.08,ESE,107,0.0,0.0,89,0.06,,,0.10,Wunderground v.1.15,2013-06-07 10:22:00,
2013-06-07 06:28:00,53.9,50.7,30.08,ESE,107,1.0,1.0,89,0.06,,,0.11,Wunderground v.1.15,2013-06-07 10:28:00,
2013-06-07 06:33:00,53.9,50.7,30.08,ESE,107,0.0,0.0,89,0.06,,,0.11,Wunderground v.1.15,2013-06-07 10:33:00,
2013-06-07 06:38:00,53.9,50.7,30.08,ESE,103,2.0,4.0,89,0.05,,,0.11,Wunderground v.1.15,2013-06-07 10:38:00,
2013-06-07 06:43:00,53.8,50.6,30.08,ESE,103,1.0,2.0,89,0.00,,,0.11,Wunderground v.1.15,2013-06-07 10:43:00,
2013-06-07 06:48:00,53.8,50.6,30.07,ESE,103,0.0,2.0,89,0.00,,,0.12,Wunderground v.1.15,2013-06-07 10:48:00,
2013-06-07 06:53:00,53.8,50.6,30.08,East,96,0.0,1.0,89,0.18,,,0.13,Wunderground v.1.15,2013-06-07 10:53:00,
2013-06-07 06:58:00,53.7,50.5,30.08,East,96,1.0,2.0,89,0.08,,,0.13,Wunderground v.1.15,2013-06-07 10:58:00,
2013-06-07 07:03:00,53.7,50.5,30.08,East,96,1.0,1.0,89,0.06,,,0.14,Wunderground v.1.15,2013-06-07 11:03:00,
2013-06-07 07:08:00,53.8,50.6,30.07,East,96,0.0,1.0,89,0.13,,,0.15,Wunderground v.1.15,2013-06-07 11:08:00,
2013-06-07 07:13:00,53.8,50.6,30.08,East,85,0.0,4.0,89,0.09,,,0.15,Wunderground v.1.15,2013-06-07 11:13:00,
2013-06-07 07:18:00,53.8,50.6,30.08,East,85,2.0,4.0,89,0.05,,,0.15,Wunderground v.1.15,2013-06-07 11:18:00,
2013-06-07 07:23:00,53.8,50.6,30.08,ENE,57,0.0,3.0,89,0.04,,,0.16,Wunderground v.1.15,2013-06-07 11:23:00,
2013-06-07 07:28:00,53.7,50.5,30.08,East,80,0.0,4.0,89,0.12,,,0.17,Wunderground v.1.15,2013-06-07 11:28:00,
2013-06-07 07:33:00,53.8,50.6,30.08,ESE,105,0.0,1.0,89,0.23,,,0.19,Wunderground v.1.15,2013-06-07 11:33:00,
2013-06-07 07:38:00,53.7,50.5,30.08,ENE,67,0.0,4.0,89,0.11,,,0.20,Wunderground v.1.15,2013-06-07 11:38:00,
2013-06-07 07:43:00,53.6,50.4,30.08,ENE,67,4.0,4.0,89,0.14,,,0.21,Wunderground v.1.15,2013-06-07 11:43:00,
2013-06-07 07:48:00,53.6,50.4,30.08,ENE,61,0.0,4.0,89,0.09,,,0.21,Wunderground v.1.15,2013-06-07 11:48:00,
2013-06-07 07:53:00,53.6,50.4,30.08,ENE,61,0.0,1.0,89,0.07,,,0.22,Wunderground v.1.15,2013-06-07 11:53:00,
2013-06-07 07:58:00,53.5,50.3,30.08,East,92,2.0,5.0,89,0.10,,,0.23,Wunderground v.1.15,2013-06-07 11:58:00,
2013-06-07 08:03:00,53.2,50.0,30.08,East,82,0.0,2.0,89,0.09,,,0.23,Wunderground v.1.15,2013-06-07 12:03:00,
2013-06-07 08:08:00,53.1,49.9,30.08,NE,52,0.0,5.0,89,0.06,,,0.24,Wunderground v.1.15,2013-06-07 12:08:00,
2013-06-07 08:13:00,53.2,50.0,30.08,NE,52,0.0,2.0,89,0.06,,,0.24,Wunderground v.1.15,2013-06-07 12:13:00,
2013-06-07 08:18:00,53.3,50.1,30.07,NE,52,0.0,2.0,89,0.09,,,0.25,Wunderground v.1.15,2013-06-07 12:18:00,
2013-06-07 08:23:00,53.4,50.2,30.08,NE,52,1.0,1.0,89,0.07,,,0.26,Wunderground v.1.15,2013-06-07 12:23:00,
2013-06-07 08:28:00,53.3,50.1,30.08,ENE,65,2.0,4.0,89,0.07,,,0.26,Wunderground v.1.15,2013-06-07 12:28:00,
2013-06-07 08:33:00,53.3,50.1,30.08,NNE,16,2.0,4.0,89,0.07,,,0.27,Wunderground v.1.15,2013-06-07 12:33:00,
2013-06-07 08:38:00,53.5,50.3,30.08,SE,138,0.0,4.0,89,0.07,,,0.27,Wunderground v.1.15,2013-06-07 12:38:00,
2013-06-07 08:43:00,53.1,49.9,30.08,ENE,61,3.0,5.0,89,0.05,,,0.27,Wunderground v.1.15,2013-06-07 12:43:00,
2013-06-07 08:48:00,53.0,49.8,30.08,NE,55,1.0,6.0,89,0.00,,,0.27,Wunderground v.1.15,2013-06-07 12:48:00,
2013-06-07 08:53:00,53.7,50.5,30.08,East,89,1.0,2.0,89,0.00,,,0.27,Wunderground v.1.15,2013-06-07 12:53:00,
2013-06-07 08:58:00,56.5,53.0,30.08,East,85,3.0,4.0,88,0.00,,,0.28,Wunderground v.1.15,2013-06-07 12:58:00,
2013-06-07 09:03:00,56.2,52.7,30.08,ENE,77,0.0,1.0,88,0.00,,,0.28,Wunderground v.1.15,2013-06-07 13:03:00,
2013-06-07 09:08:00,54.5,51.0,30.08,ENE,77,1.0,2.0,88,0.05,,,0.29,Wunderground v.1.15,2013-06-07 13:08:00,
2013-06-07 09:13:00,53.5,50.3,30.08,East,82,1.0,1.0,89,0.05,,,0.29,Wunderground v.1.15,2013-06-07 13:13:00,
2013-06-07 09:18:00,53.4,50.2,30.08,East,82,0.0,2.0,89,0.05,,,0.29,Wunderground v.1.15,2013-06-07 13:18:00,
2013-06-07 09:23:00,53.4,50.2,30.08,South,174,0.0,2.0,89,0.04,,,0.29,Wunderground v.1.15,2013-06-07 13:23:00,
2013-06-07 09:28:00,53.4,50.2,30.07,East,81,0.0,4.0,89,0.00,,,0.29,Wunderground v.1.15,2013-06-07 13:28:00,
2013-06-07 09:33:00,53.4,50.2,30.07,East,86,2.0,4.0,89,0.00,,,0.30,Wunderground v.1.15,2013-06-07 13:33:00,
2013-06-07 09:38:00,53.5,50.3,30.07,ENE,59,1.0,4.0,89,0.00,,,0.30,Wunderground v.1.15,2013-06-07 13:38:00,
2013-06-07 09:43:00,53.6,50.4,30.07,East,82,0.0,2.0,89,0.05,,,0.31,Wunderground v.1.15,2013-06-07 13:43:00,
2013-06-07 09:48:00,53.7,50.5,30.08,East,82,2.0,2.0,89,0.05,,,0.31,Wunderground v.1.15,2013-06-07 13:48:00,
2013-06-07 09:53:00,53.7,50.5,30.08,ENE,78,0.0,2.0,89,0.05,,,0.31,Wunderground v.1.15,2013-06-07 13:53:00,
2013-06-07 09:58:00,53.8,50.6,30.07,East,90,1.0,4.0,89,0.04,,,0.31,Wunderground v.1.15,2013-06-07 13:58:00,
2013-06-07 10:03:00,53.9,50.7,30.07,South,178,4.0,4.0,89,0.00,,,0.31,Wunderground v.1.15,2013-06-07 14:03:00,
2013-06-07 10:08:00,54.0,50.8,30.07,ENE,77,0.0,4.0,89,0.00,,,0.32,Wunderground v.1.15,2013-06-07 14:08:00,
2013-06-07 10:13:00,54.1,50.9,30.07,East,79,0.0,2.0,89,0.14,,,0.33,Wunderground v.1.15,2013-06-07 14:13:00,
2013-06-07 10:18:00,54.2,51.0,30.07,East,79,1.0,4.0,89,0.11,,,0.34,Wunderground v.1.15,2013-06-07 14:18:00,
2013-06-07 10:23:00,54.3,51.1,30.07,NE,52,3.0,4.0,89,0.12,,,0.35,Wunderground v.1.15,2013-06-07 14:23:00,
2013-06-07 10:28:00,54.4,51.2,30.07,NE,52,0.0,4.0,89,0.10,,,0.36,Wunderground v.1.15,2013-06-07 14:28:00,
2013-06-07 10:33:00,54.5,51.3,30.07,NE,52,1.0,2.0,89,0.19,,,0.37,Wunderground v.1.15,2013-06-07 14:33:00,
2013-06-07 10:38:00,54.6,51.4,30.08,SE,134,2.0,3.0,89,0.12,,,0.38,Wunderground v.1.15,2013-06-07 14:38:00,
2013-06-07 10:43:00,54.8,51.6,30.08,East,88,0.0,1.0,89,0.12,,,0.39,Wunderground v.1.15,2013-06-07 14:43:00,
2013-06-07 10:48:00,55.0,51.8,30.08,East,88,0.0,1.0,89,0.09,,,0.40,Wunderground v.1.15,2013-06-07 14:48:00,
2013-06-07 10:53:00,55.1,51.9,30.08,South,178,2.0,2.0,89,0.13,,,0.41,Wunderground v.1.15,2013-06-07 14:53:00,
2013-06-07 10:58:00,55.2,52.0,30.08,ESE,112,0.0,3.0,89,0.08,,,0.41,Wunderground v.1.15,2013-06-07 14:58:00,
2013-06-07 11:03:00,55.3,52.1,30.08,ESE,102,1.0,3.0,89,0.07,,,0.42,Wunderground v.1.15,2013-06-07 15:03:00,
2013-06-07 11:08:00,55.2,52.0,30.07,ENE,74,2.0,3.0,89,0.09,,,0.43,Wunderground v.1.15,2013-06-07 15:08:00,
2013-06-07 11:13:00,55.3,52.1,30.07,ENE,57,2.0,2.0,89,0.09,,,0.44,Wunderground v.1.15,2013-06-07 15:13:00,
2013-06-07 11:18:00,55.5,52.3,30.07,SE,138,0.0,4.0,89,0.12,,,0.45,Wunderground v.1.15,2013-06-07 15:18:00,
2013-06-07 11:23:00,55.7,52.5,30.07,NNE,32,1.0,3.0,89,0.10,,,0.45,Wunderground v.1.15,2013-06-07 15:23:00,
2013-06-07 11:28:00,55.8,52.6,30.07,NE,44,0.0,4.0,89,0.06,,,0.45,Wunderground v.1.15,2013-06-07 15:28:00,
2013-06-07 11:33:00,56.0,52.8,30.07,SE,142,0.0,1.0,89,0.06,,,0.46,Wunderground v.1.15,2013-06-07 15:33:00,
2013-06-07 11:38:00,56.1,52.9,30.07,SE,128,1.0,2.0,89,0.09,,,0.47,Wunderground v.1.15,2013-06-07 15:38:00,
2013-06-07 11:43:00,56.3,53.1,30.07,SE,130,2.0,2.0,89,0.07,,,0.47,Wunderground v.1.15,2013-06-07 15:43:00,
2013-06-07 11:48:00,56.2,53.0,30.07,ENE,75,1.0,4.0,89,0.12,,,0.49,Wunderground v.1.15,2013-06-07 15:48:00,
2013-06-07 11:53:00,56.4,53.2,30.07,ENE,75,2.0,3.0,89,0.11,,,0.49,Wunderground v.1.15,2013-06-07 15:53:00,
2013-06-07 11:58:00,56.4,53.2,30.07,NE,55,0.0,4.0,89,0.07,,,0.50,Wunderground v.1.15,2013-06-07 15:58:00,
2013-06-07 12:03:00,56.5,53.3,30.07,ENE,57,1.0,3.0,89,0.11,,,0.51,Wunderground v.1.15,2013-06-07 16:03:00,
2013-06-07 12:08:00,56.8,53.6,30.06,ENE,59,1.0,3.0,89,0.11,,,0.51,Wunderground v.1.15,2013-06-07 16:08:00,
2013-06-07 12:13:00,56.8,53.6,30.07,ENE,77,1.0,4.0,89,0.06,,,0.51,Wunderground v.1.15,2013-06-07 16:13:00,
2013-06-07 12:18:00,56.7,53.5,30.06,NE,55,1.0,6.0,89,0.05,,,0.52,Wunderground v.1.15,2013-06-07 16:18:00,
2013-06-07 12:23:00,56.9,53.7,30.06,NE,55,1.0,2.0,89,0.07,,,0.53,Wunderground v.1.15,2013-06-07 16:23:00,
2013-06-07 12:28:00,57.1,53.9,30.06,NE,55,2.0,2.0,89,0.07,,,0.53,Wunderground v.1.15,2013-06-07 16:28:00,
2013-06-07 12:33:00,57.1,53.9,30.06,NE,55,0.0,2.0,89,0.06,,,0.53,Wunderground v.1.15,2013-06-07 16:33:00,
2013-06-07 12:38:00,57.0,53.8,30.06,ENE,75,0.0,5.0,89,0.04,,,0.53,Wunderground v.1.15,2013-06-07 16:38:00,
2013-06-07 12:43:00,57.0,53.8,30.06,ENE,74,3.0,4.0,89,0.00,,,0.53,Wunderground v.1.15,2013-06-07 16:43:00,
2013-06-07 12:49:00,57.1,53.9,30.06,WNW,285,1.0,4.0,89,0.00,,,0.54,Wunderground v.1.15,2013-06-07 16:49:00,
2013-06-07 12:54:00,57.4,54.2,30.05,ENE,61,0.0,1.0,89,0.00,,,0.54,Wunderground v.1.15,2013-06-07 16:54:00,
2013-06-07 12:59:00,57.5,54.3,30.05,ENE,61,2.0,3.0,89,0.05,,,0.55,Wunderground v.1.15,2013-06-07 16:59:00,
2013-06-07 13:04:00,57.3,54.1,30.05,ENE,76,5.0,5.0,89,0.05,,,0.55,Wunderground v.1.15,2013-06-07 17:04:00,
2013-06-07 13:09:00,57.4,54.2,30.05,WSW,243,1.0,6.0,89,0.04,,,0.55,Wunderground v.1.15,2013-06-07 17:09:00,
2013-06-07 13:14:00,57.4,54.2,30.05,ENE,63,0.0,5.0,89,0.00,,,0.56,Wunderground v.1.15,2013-06-07 17:14:00,
2013-06-07 13:19:00,57.4,54.2,30.05,NE,53,4.0,5.0,89,0.00,,,0.56,Wunderground v.1.15,2013-06-07 17:19:00,
2013-06-07 13:24:00,57.5,54.3,30.05,ENE,59,1.0,3.0,89,0.06,,,0.57,Wunderground v.1.15,2013-06-07 17:24:00,
2013-06-07 13:29:00,57.7,54.5,30.05,SE,131,0.0,3.0,89,0.06,,,0.57,Wunderground v.1.15,2013-06-07 17:29:00,
2013-06-07 13:34:00,58.0,54.8,30.04,East,83,2.0,4.0,89,0.07,,,0.58,Wunderground v.1.15,2013-06-07 17:34:00,
2013-06-07 13:39:00,58.0,54.8,30.04,East,96,1.0,7.0,89,0.12,,,0.59,Wunderground v.1.15,2013-06-07 17:39:00,
2013-06-07 13:44:00,58.1,54.9,30.04,SSE,163,4.0,5.0,89,0.13,,,0.60,Wunderground v.1.15,2013-06-07 17:44:00,
2013-06-07 13:49:00,58.1,54.9,30.04,South,183,1.0,5.0,89,0.15,,,0.61,Wunderground v.1.15,2013-06-07 17:49:00,
2013-06-07 13:55:00,58.2,55.0,30.04,NW,325,2.0,3.0,89,0.19,,,0.63,Wunderground v.1.15,2013-06-07 17:55:00,
2013-06-07 14:00:00,58.1,54.9,30.04,East,90,3.0,5.0,89,0.24,,,0.65,Wunderground v.1.15,2013-06-07 18:00:00,
2013-06-07 14:05:00,58.1,54.9,30.04,SE,141,1.0,7.0,89,0.26,,,0.67,Wunderground v.1.15,2013-06-07 18:05:00,
2013-06-07 14:10:00,58.1,54.9,30.04,NE,49,1.0,7.0,89,0.32,,,0.70,Wunderground v.1.15,2013-06-07 18:10:00,
2013-06-07 14:16:00,58.1,54.9,30.04,ESE,113,0.0,3.0,89,0.22,,,0.72,Wunderground v.1.15,2013-06-07 18:16:00,
2013-06-07 14:21:00,58.0,54.8,30.04,East,89,0.0,3.0,89,0.22,,,0.74,Wunderground v.1.15,2013-06-07 18:21:00,
2013-06-07 14:26:00,58.0,54.8,30.03,SE,140,1.0,2.0,89,0.37,,,0.77,Wunderground v.1.15,2013-06-07 18:26:00,
2013-06-07 14:31:00,57.8,54.6,30.03,NE,40,3.0,11.0,89,0.30,,,0.80,Wunderground v.1.15,2013-06-07 18:31:00,
2013-06-07 14:37:00,57.7,54.5,30.02,SE,138,1.0,4.0,89,0.42,,,0.83,Wunderground v.1.15,2013-06-07 18:37:00,
2013-06-07 14:42:00,57.7,54.5,30.02,WSW,240,0.0,2.0,89,0.32,,,0.86,Wunderground v.1.15,2013-06-07 18:42:00,
2013-06-07 14:48:00,57.7,54.5,30.02,NE,53,0.0,6.0,89,0.31,,,0.89,Wunderground v.1.15,2013-06-07 18:48:00,
2013-06-07 14:53:00,57.6,54.4,30.02,ENE,78,3.0,3.0,89,0.58,,,0.94,Wunderground v.1.15,2013-06-07 18:53:00,
2013-06-07 14:58:00,57.5,54.3,30.02,ESE,106,1.0,7.0,89,0.33,,,0.98,Wunderground v.1.15,2013-06-07 18:58:00,
2013-06-07 15:03:00,57.4,54.2,30.02,NE,49,1.0,7.0,89,0.45,,,1.01,Wunderground v.1.15,2013-06-07 19:03:00,
2013-06-07 15:09:00,57.4,54.2,30.02,SW,216,0.0,7.0,89,0.36,,,1.04,Wunderground v.1.15,2013-06-07 19:09:00,
2013-06-07 15:14:00,57.5,54.3,30.01,NE,51,2.0,2.0,89,0.27,,,1.07,Wunderground v.1.15,2013-06-07 19:14:00,
2013-06-07 15:19:00,57.4,54.2,30.01,ENE,61,4.0,10.0,89,0.25,,,1.09,Wunderground v.1.15,2013-06-07 19:19:00,
2013-06-07 15:24:00,57.3,54.1,30.01,ENE,76,3.0,3.0,89,0.30,,,1.11,Wunderground v.1.15,2013-06-07 19:24:00,
2013-06-07 15:30:00,57.2,54.0,30.00,WNW,297,0.0,8.0,89,0.24,,,1.14,Wunderground v.1.15,2013-06-07 19:30:00,
2013-06-07 15:35:00,57.1,53.9,30.00,NE,55,2.0,3.0,89,0.34,,,1.17,Wunderground v.1.15,2013-06-07 19:35:00,
2013-06-07 15:40:00,56.8,53.6,30.00,ENE,76,2.0,5.0,89,0.30,,,1.20,Wunderground v.1.15,2013-06-07 19:40:00,
2013-06-07 15:47:00,56.6,53.4,30.00,East,86,0.0,3.0,89,0.41,,,1.23,Wunderground v.1.15,2013-06-07 19:47:00,
2013-06-07 15:52:00,56.3,53.1,30.00,NNE,29,8.0,13.0,89,0.25,,,1.25,Wunderground v.1.15,2013-06-07 19:52:00,
2013-06-07 15:57:00,56.0,52.8,30.00,NNE,33,4.0,11.0,89,0.20,,,1.27,Wunderground v.1.15,2013-06-07 19:57:00,
2013-06-07 16:02:00,56.1,52.9,30.00,NE,34,5.0,5.0,89,0.15,,,1.29,Wunderground v.1.15,2013-06-07 20:02:00,
2013-06-07 16:07:00,55.8,52.6,30.00,East,90,3.0,9.0,89,0.41,,,1.31,Wunderground v.1.15,2013-06-07 20:07:00,
2013-06-07 16:12:00,55.7,52.5,30.00,ENE,70,9.0,9.0,89,0.38,,,1.33,Wunderground v.1.15,2013-06-07 20:12:00,
2013-06-07 16:17:00,55.5,52.3,30.00,East,87,9.0,9.0,89,0.21,,,1.35,Wunderground v.1.15,2013-06-07 20:17:00,
2013-06-07 16:22:00,55.5,52.3,30.00,NE,54,1.0,3.0,89,0.26,,,1.37,Wunderground v.1.15,2013-06-07 20:22:00,
2013-06-07 16:28:00,55.5,52.3,30.00,ENE,71,2.0,3.0,89,0.13,,,1.38,Wunderground v.1.15,2013-06-07 20:28:00,
2013-06-07 16:33:00,55.4,52.2,30.00,WNW,299,0.0,2.0,89,0.12,,,1.40,Wunderground v.1.15,2013-06-07 20:33:00,
2013-06-07 16:38:00,55.4,52.2,30.00,NNE,32,4.0,5.0,89,0.11,,,1.40,Wunderground v.1.15,2013-06-07 20:38:00,
2013-06-07 16:44:00,55.3,52.1,30.00,NW,325,6.0,7.0,89,0.09,,,1.41,Wunderground v.1.15,2013-06-07 20:44:00,
2013-06-07 16:50:00,55.2,52.0,30.00,ENE,67,6.0,7.0,89,0.08,,,1.42,Wunderground v.1.15,2013-06-07 20:50:00,
2013-06-07 16:55:00,55.2,52.0,30.00,East,82,1.0,3.0,89,0.10,,,1.43,Wunderground v.1.15,2013-06-07 20:55:00,
2013-06-07 17:00:00,55.2,52.0,30.00,South,190,0.0,4.0,89,0.09,,,1.43,Wunderground v.1.15,2013-06-07 21:00:00,
2013-06-07 17:05:00,55.1,51.9,30.00,East,88,1.0,4.0,89,0.23,,,1.45,Wunderground v.1.15,2013-06-07 21:05:00,
2013-06-07 17:10:00,55.1,51.9,29.99,NE,54,0.0,4.0,89,0.27,,,1.47,Wunderground v.1.15,2013-06-07 21:10:00,
2013-06-07 17:15:00,55.0,51.8,29.99,NE,55,7.0,7.0,89,0.08,,,1.47,Wunderground v.1.15,2013-06-07 21:15:00,
2013-06-07 17:20:00,55.0,51.8,29.99,ESE,121,2.0,7.0,89,0.08,,,1.48,Wunderground v.1.15,2013-06-07 21:20:00,
2013-06-07 17:25:00,55.0,51.8,29.99,NE,49,0.0,3.0,89,0.06,,,1.49,Wunderground v.1.15,2013-06-07 21:25:00,
2013-06-07 17:31:00,55.0,51.8,29.99,SE,128,1.0,3.0,89,0.06,,,1.49,Wunderground v.1.15,2013-06-07 21:31:00,
2013-06-07 17:36:00,54.9,51.7,29.99,East,82,0.0,5.0,89,0.06,,,1.49,Wunderground v.1.15,2013-06-07 21:36:00,
2013-06-07 17:41:00,54.8,51.6,29.99,ENE,65,1.0,5.0,89,0.05,,,1.50,Wunderground v.1.15,2013-06-07 21:41:00,
2013-06-07 17:47:00,54.7,51.5,29.99,NNW,340,1.0,6.0,89,0.13,,,1.52,Wunderground v.1.15,2013-06-07 21:47:00,
2013-06-07 17:52:00,54.6,51.4,29.99,East,82,1.0,2.0,89,0.30,,,1.54,Wunderground v.1.15,2013-06-07 21:52:00,
2013-06-07 17:57:00,54.5,51.3,29.98,ENE,69,3.0,5.0,89,0.33,,,1.58,Wunderground v.1.15,2013-06-07 21:57:00,
2013-06-07 18:02:00,54.4,51.2,29.98,North,355,1.0,2.0,89,0.82,,,1.63,Wunderground v.1.15,2013-06-07 22:02:00,
2013-06-07 18:08:00,54.4,51.2,29.98,NE,55,0.0,4.0,89,0.29,,,1.66,Wunderground v.1.15,2013-06-07 22:08:00,
2013-06-07 18:13:00,55.3,52.1,29.98,East,96,4.0,4.0,89,0.22,,,1.68,Wunderground v.1.15,2013-06-07 22:13:00,
2013-06-07 18:18:00,57.1,53.6,29.98,ENE,57,2.0,5.0,88,0.15,,,1.70,Wunderground v.1.15,2013-06-07 22:18:00,
2013-06-07 18:23:00,55.0,51.8,29.98,ENE,66,1.0,5.0,89,0.27,,,1.72,Wunderground v.1.15,2013-06-07 22:23:00,
2013-06-07 18:29:00,54.4,51.2,29.98,East,95,2.0,5.0,89,0.38,,,1.75,Wunderground v.1.15,2013-06-07 22:29:00,
2013-06-07 18:34:00,54.2,51.0,29.98,SE,128,0.0,2.0,89,0.21,,,1.78,Wunderground v.1.15,2013-06-07 22:34:00,
2013-06-07 18:39:00,54.1,50.9,29.98,ENE,57,2.0,10.0,89,0.10,,,1.78,Wunderground v.1.15,2013-06-07 22:39:00,
2013-06-07 18:44:00,54.1,50.9,29.98,SE,130,1.0,2.0,89,0.13,,,1.80,Wunderground v.1.15,2013-06-07 22:44:00,
2013-06-07 18:49:00,54.0,50.8,29.98,ENE,63,3.0,3.0,89,0.11,,,1.80,Wunderground v.1.15,2013-06-07 22:49:00,
2013-06-07 18:54:00,53.9,50.7,29.98,NW,316,1.0,7.0,89,0.08,,,1.81,Wunderground v.1.15,2013-06-07 22:54:00,
2013-06-07 19:00:00,53.8,50.6,29.98,North,5,3.0,7.0,89,0.08,,,1.82,Wunderground v.1.15,2013-06-07 23:00:00,
2013-06-07 19:05:00,53.6,50.4,29.97,ENE,65,2.0,7.0,89,0.08,,,1.82,Wunderground v.1.15,2013-06-07 23:05:00,
2013-06-07 19:10:00,53.6,50.4,29.97,East,99,1.0,7.0,89,0.08,,,1.83,Wunderground v.1.15,2013-06-07 23:10:00,
2013-06-07 19:15:00,53.5,50.3,29.96,ENE,63,4.0,10.0,89,0.13,,,1.84,Wunderground v.1.15,2013-06-07 23:15:00,
2013-06-07 19:20:00,53.5,50.3,29.95,East,80,4.0,10.0,89,0.13,,,1.85,Wunderground v.1.15,2013-06-07 23:20:00,
2013-06-07 19:26:00,53.4,50.2,29.94,ENE,67,2.0,6.0,89,0.14,,,1.87,Wunderground v.1.15,2013-06-07 23:26:00,
2013-06-07 19:31:00,53.3,50.1,29.94,NNE,21,9.0,10.0,89,0.11,,,1.87,Wunderground v.1.15,2013-06-07 23:31:00,
2013-06-07 19:36:00,53.2,50.0,29.94,South,172,2.0,8.0,89,0.08,,,1.88,Wunderground v.1.15,2013-06-07 23:36:00,
2013-06-07 19:41:00,53.2,50.0,29.94,East,101,0.0,8.0,89,0.07,,,1.88,Wunderground v.1.15,2013-06-07 23:41:00,
2013-06-07 19:47:00,53.2,50.0,29.94,North,9,2.0,6.0,89,0.21,,,1.90,Wunderground v.1.15,2013-06-07 23:47:00,
2013-06-07 19:52:00,53.1,49.9,29.93,ENE,65,4.0,4.0,89,0.54,,,1.93,Wunderground v.1.15,2013-06-07 23:52:00,
2013-06-07 19:58:00,53.1,49.9,29.93,East,98,1.0,9.0,89,0.39,,,1.97,Wunderground v.1.15,2013-06-07 23:58:00,
2013-06-07 20:03:00,53.0,49.8,29.93,SW,221,0.0,4.0,89,0.26,,,1.99,Wunderground v.1.15,2013-06-08 00:03:00,
2013-06-07 20:08:00,53.0,49.8,29.93,WNW,289,3.0,5.0,89,0.42,,,2.02,Wunderground v.1.15,2013-06-08 00:08:00,
2013-06-07 20:13:00,53.0,49.8,29.93,NE,55,0.0,4.0,89,0.74,,,2.07,Wunderground v.1.15,2013-06-08 00:13:00,
2013-06-07 20:19:00,52.9,49.7,29.92,ESE,113,4.0,7.0,89,0.65,,,2.12,Wunderground v.1.15,2013-06-08 00:19:00,
2013-06-07 20:24:00,52.8,49.6,29.90,ENE,74,8.0,8.0,89,0.54,,,2.18,Wunderground v.1.15,2013-06-08 00:24:00,
2013-06-07 20:29:00,52.7,49.5,29.91,North,355,1.0,12.0,89,0.34,,,2.22,Wunderground v.1.15,2013-06-08 00:29:00,
2013-06-07 20:34:00,52.7,49.5,29.91,SSE,168,4.0,9.0,89,0.48,,,2.26,Wunderground v.1.15,2013-06-08 00:34:00,
2013-06-07 20:40:00,52.7,49.5,29.91,SW,228,1.0,9.0,89,0.37,,,2.29,Wunderground v.1.15,2013-06-08 00:40:00,
2013-06-07 20:45:00,52.7,49.5,29.92,West,279,0.0,5.0,89,0.55,,,2.35,Wunderground v.1.15,2013-06-08 00:45:00,
2013-06-07 20:51:00,52.7,49.5,29.94,NNE,16,1.0,5.0,89,0.61,,,2.39,Wunderground v.1.15,2013-06-08 00:51:00,
2013-06-07 20:56:00,52.7,49.5,29.93,NNW,333,1.0,3.0,89,0.62,,,2.45,Wunderground v.1.15,2013-06-08 00:56:00,
2013-06-07 21:01:00,52.7,49.5,29.92,ENE,64,2.0,8.0,89,1.01,,,2.53,Wunderground v.1.15,2013-06-08 01:01:00,
2013-06-07 21:06:00,52.6,49.4,29.93,NW,313,2.0,5.0,89,0.64,,,2.59,Wunderground v.1.15,2013-06-08 01:06:00,
2013-06-07 21:11:00,52.6,49.4,29.92,North,9,4.0,6.0,89,0.89,,,2.66,Wunderground v.1.15,2013-06-08 01:11:00,
2013-06-07 21:17:00,52.6,49.4,29.93,WNW,294,0.0,3.0,89,1.56,,,2.73,Wunderground v.1.15,2013-06-08 01:17:00,
2013-06-07 21:22:00,52.6,49.4,29.92,WSW,254,0.0,1.0,89,0.62,,,2.80,Wunderground v.1.15,2013-06-08 01:22:00,
2013-06-07 21:27:00,52.6,49.4,29.93,ENE,57,3.0,4.0,89,0.31,,,2.83,Wunderground v.1.15,2013-06-08 01:27:00,
2013-06-07 21:33:00,52.6,49.4,29.92,ENE,69,2.0,3.0,89,0.34,,,2.85,Wunderground v.1.15,2013-06-08 01:33:00,
2013-06-07 21:38:00,52.5,49.4,29.92,WNW,291,2.0,4.0,89,0.22,,,2.87,Wunderground v.1.15,2013-06-08 01:38:00,
2013-06-07 21:43:00,52.5,49.4,29.92,NNE,13,0.0,2.0,89,0.13,,,2.88,Wunderground v.1.15,2013-06-08 01:43:00,
2013-06-07 21:48:00,52.4,49.3,29.91,NW,308,1.0,5.0,89,0.17,,,2.89,Wunderground v.1.15,2013-06-08 01:48:00,
2013-06-07 21:53:00,52.4,49.3,29.91,East,98,2.0,8.0,89,0.22,,,2.91,Wunderground v.1.15,2013-06-08 01:53:00,
2013-06-07 21:58:00,52.4,49.3,29.91,NNW,342,0.0,8.0,89,0.14,,,2.92,Wunderground v.1.15,2013-06-08 01:58:00,
2013-06-07 22:03:00,52.4,49.3,29.91,South,184,1.0,4.0,89,0.15,,,2.94,Wunderground v.1.15,2013-06-08 02:03:00,
2013-06-07 22:08:00,52.4,49.3,29.89,East,101,2.0,8.0,89,0.19,,,2.95,Wunderground v.1.15,2013-06-08 02:08:00,
2013-06-07 22:13:00,52.4,49.3,29.91,NNE,15,1.0,4.0,89,0.07,,,2.95,Wunderground v.1.15,2013-06-08 02:13:00,
2013-06-07 22:18:00,52.4,49.3,29.90,WNW,303,3.0,4.0,89,0.04,,,2.95,Wunderground v.1.15,2013-06-08 02:18:00,
2013-06-07 22:23:00,52.4,49.3,29.90,NNE,16,1.0,2.0,89,0.18,,,2.97,Wunderground v.1.15,2013-06-08 02:23:00,
2013-06-07 22:29:00,52.4,49.3,29.89,NNW,329,1.0,7.0,89,0.10,,,2.97,Wunderground v.1.15,2013-06-08 02:29:00,
2013-06-07 22:35:00,52.4,49.3,29.89,NW,318,3.0,7.0,89,0.05,,,2.97,Wunderground v.1.15,2013-06-08 02:35:00,
2013-06-07 22:40:00,52.4,49.3,29.89,NNW,340,0.0,7.0,89,0.05,,,2.98,Wunderground v.1.15,2013-06-08 02:40:00,
2013-06-07 22:46:00,52.3,49.2,29.89,West,261,6.0,6.0,89,0.30,,,3.00,Wunderground v.1.15,2013-06-08 02:46:00,
2013-06-07 22:51:00,52.3,49.2,29.88,WSW,251,0.0,6.0,89,0.16,,,3.01,Wunderground v.1.15,2013-06-08 02:51:00,
2013-06-07 22:56:00,52.4,49.3,29.87,ENE,71,2.0,3.0,89,0.10,,,3.02,Wunderground v.1.15,2013-06-08 02:56:00,
2013-06-07 23:01:00,52.3,49.2,29.88,NNE,21,5.0,11.0,89,0.36,,,3.08,Wunderground v.1.15,2013-06-08 03:01:00,
2013-06-07 23:07:00,52.3,49.2,29.88,NW,321,2.0,6.0,89,0.19,,,3.09,Wunderground v.1.15,2013-06-08 03:07:00,
2013-06-07 23:12:00,52.3,49.2,29.87,NE,34,1.0,6.0,89,0.09,,,3.10,Wunderground v.1.15,2013-06-08 03:12:00,
2013-06-07 23:17:00,52.3,49.2,29.87,WNW,293,1.0,4.0,89,0.08,,,3.10,Wunderground v.1.15,2013-06-08 03:17:00,
2013-06-07 23:22:00,52.4,49.3,29.86,East,98,2.0,3.0,89,0.08,,,3.11,Wunderground v.1.15,2013-06-08 03:22:00,
2013-06-07 23:28:00,52.3,49.2,29.86,ENE,63,2.0,4.0,89,0.07,,,3.12,Wunderground v.1.15,2013-06-08 03:28:00,
2013-06-07 23:33:00,52.3,49.2,29.85,North,360,3.0,3.0,89,0.96,,,3.16,Wunderground v.1.15,2013-06-08 03:33:00,
2013-06-07 23:38:00,52.2,49.1,29.85,WSW,249,2.0,5.0,89,0.26,,,3.19,Wunderground v.1.15,2013-06-08 03:38:00,
2013-06-07 23:39:00,52.2,49.1,29.84,ESE,108,4.0,5.0,89,0.10,,,3.29,Wunderground v.1.15,2013-06-08 03:39:00,
2013-06-07 23:40:00,52.2,49.1,29.84,SSW,213,2.0,2.0,89,0.10,,,3.29,Wunderground v.1.15,2013-06-08 03:40:00,
2013-06-07 23:41:00,52.2,49.1,29.84,SSW,213,0.0,3.0,89,0.10,,,3.29,Wunderground v.1.15,2013-06-08 03:41:00,
2013-06-07 23:42:00,52.2,49.1,29.84,SSW,213,1.0,3.0,89,0.10,,,3.29,Wunderground v.1.15,2013-06-08 03:42:00,
2013-06-07 23:43:00,52.2,49.1,29.85,NNW,336,3.0,3.0,89,0.26,,,3.22,Wunderground v.1.15,2013-06-08 03:43:00,
2013-06-07 23:44:00,52.2,49.1,29.84,West,268,2.0,6.0,89,0.07,,,0.00,Wunderground v.1.15,2013-06-08 03:44:00,
2013-06-07 23:45:00,52.2,49.1,29.84,West,268,1.0,6.0,89,0.06,,,0.00,Wunderground v.1.15,2013-06-08 03:45:00,
2013-06-07 23:46:00,52.2,49.1,29.84,West,270,2.0,6.0,89,0.06,,,0.00,Wunderground v.1.15,2013-06-08 03:46:00,
2013-06-07 23:49:00,52.2,49.1,29.84,NW,312,2.0,5.0,89,0.98,,,3.27,Wunderground v.1.15,2013-06-08 03:49:00,
2013-06-07 23:54:00,52.2,49.1,29.84,SW,236,1.0,2.0,89,0.19,,,3.28,Wunderground v.1.15,2013-06-08 03:54:00,